Time;durP1;ratioP1;P1;durP2;ratioP2;P2;SDS_P1;SDS_P2;PMS_P1;PMS_P2;Temp;Humidity;BMP_temperature;BMP_pressure;BME280_temperature;BME280_humidity;BME280_pressure;Samples;Min_cycle;Max_cycle;Signal;HPM_P1;HPM_P2
2020/12/03 00:00:43;;;;;;;74.53;37.67;;;0.30;99.90;;;;;;5036957;28;20456;-60
2020/12/03 00:03:14;;;;;;;75.20;35.80;;;0.20;99.90;;;;;;5036298;28;20464;-60
2020/12/03 00:05:41;;;;;;;75.57;37.33;;;0.10;99.90;;;;;;5035127;28;20436;-61
2020/12/03 00:08:08;;;;;;;68.07;35.40;;;0.10;99.90;;;;;;5035165;28;20514;-61
2020/12/03 00:10:34;;;;;;;74.10;37.27;;;0.00;99.90;;;;;;5035382;28;20514;-61
2020/12/03 00:13:06;;;;;;;75.63;36.93;;;0.00;99.90;;;;;;5035390;28;20891;-61
2020/12/03 00:15:32;;;;;;;84.47;38.13;;;0.00;99.90;;;;;;5035336;28;20777;-61
2020/12/03 00:17:59;;;;;;;70.07;35.80;;;0.00;99.90;;;;;;5035501;28;20456;-61
2020/12/03 00:20:26;;;;;;;74.77;35.93;;;0.00;99.90;;;;;;5034937;28;20510;-60
2020/12/03 00:22:52;;;;;;;86.40;39.63;;;0.00;99.90;;;;;;5035419;28;20448;-61
2020/12/03 00:25:18;;;;;;;79.27;37.07;;;0.10;99.90;;;;;;5035440;28;20464;-61
2020/12/03 00:27:49;;;;;;;81.70;38.33;;;0.10;99.90;;;;;;5034798;28;20455;-60
2020/12/03 00:30:15;;;;;;;69.47;34.40;;;0.10;99.90;;;;;;5035514;28;20452;-61
2020/12/03 00:32:41;;;;;;;84.90;39.40;;;0.10;99.90;;;;;;5034904;28;20484;-61
2020/12/03 00:35:08;;;;;;;84.80;38.20;;;0.10;99.90;;;;;;5035215;28;20452;-61
2020/12/03 00:37:34;;;;;;;77.47;37.77;;;0.20;99.90;;;;;;5036178;28;20448;-61
2020/12/03 00:40:00;;;;;;;75.27;36.53;;;0.10;99.90;;;;;;5036571;28;20963;-61
2020/12/03 00:42:27;;;;;;;74.50;35.63;;;0.10;99.90;;;;;;5037366;28;20460;-63
2020/12/03 00:44:53;;;;;;;80.97;37.93;;;0.10;99.90;;;;;;5035484;28;20494;-60
2020/12/03 00:47:19;;;;;;;82.23;37.37;;;0.10;99.90;;;;;;5035167;28;20464;-61
2020/12/03 00:49:45;;;;;;;67.80;34.50;;;0.10;99.90;;;;;;5034801;28;20808;-59
2020/12/03 00:52:12;;;;;;;69.20;34.70;;;0.10;99.90;;;;;;5035645;28;20787;-60
2020/12/03 00:54:38;;;;;;;72.53;35.20;;;0.10;99.90;;;;;;5034951;28;20452;-59
2020/12/03 00:57:07;;;;;;;70.13;35.13;;;0.10;99.90;;;;;;5034779;28;20514;-59
2020/12/03 00:59:33;;;;;;;75.57;36.07;;;0.20;99.90;;;;;;5034675;28;20513;-60
2020/12/03 01:01:59;;;;;;;77.77;38.87;;;0.20;99.90;;;;;;5034982;28;20484;-60
2020/12/03 01:04:25;;;;;;;69.43;38.97;;;0.20;99.90;;;;;;5035119;28;20456;-61
2020/12/03 01:06:51;;;;;;;75.47;36.70;;;0.30;99.90;;;;;;5035112;28;20487;-61
2020/12/03 01:09:18;;;;;;;68.80;35.73;;;0.30;99.90;;;;;;5035396;28;20542;-61
2020/12/03 01:11:44;;;;;;;73.77;34.57;;;0.30;99.90;;;;;;5035013;28;20476;-60
2020/12/03 01:14:10;;;;;;;72.33;36.80;;;0.30;99.90;;;;;;5035294;28;20460;-61
2020/12/03 01:16:36;;;;;;;80.67;39.33;;;0.30;99.90;;;;;;5034896;28;20456;-60
2020/12/03 01:19:02;;;;;;;72.10;37.27;;;0.40;99.90;;;;;;5034674;28;20785;-60
2020/12/03 01:21:28;;;;;;;74.10;37.87;;;0.30;99.90;;;;;;5034675;28;20484;-60
2020/12/03 01:23:54;;;;;;;73.13;34.90;;;0.30;99.90;;;;;;5034352;28;20486;-60
2020/12/03 01:26:21;;;;;;;79.40;35.73;;;0.30;99.90;;;;;;5034471;28;20456;-60
2020/12/03 01:28:48;;;;;;;67.87;36.63;;;0.40;99.90;;;;;;5034538;28;20451;-60
2020/12/03 01:31:14;;;;;;;72.53;35.57;;;0.30;99.90;;;;;;5034460;28;20452;-60
2020/12/03 01:33:40;;;;;;;72.80;35.53;;;0.30;99.90;;;;;;5034397;28;20870;-60
2020/12/03 01:36:07;;;;;;;71.10;35.00;;;0.30;99.90;;;;;;5034451;28;20538;-60
2020/12/03 01:38:33;;;;;;;70.67;37.33;;;0.30;99.90;;;;;;5036526;28;20480;-60
2020/12/03 01:40:59;;;;;;;68.70;35.17;;;0.30;99.90;;;;;;5047807;28;20451;-60
2020/12/03 01:43:26;;;;;;;76.27;36.57;;;0.20;99.90;;;;;;5044348;28;20452;-60
2020/12/03 01:45:58;;;;;;;71.47;37.90;;;0.20;99.90;;;;;;5038214;28;20456;-60
2020/12/03 01:48:32;;;;;;;75.03;36.73;;;0.20;99.90;;;;;;5034939;28;20975;-61
2020/12/03 01:51:00;;;;;;;73.83;35.83;;;0.20;99.90;;;;;;5034408;28;20436;-60
2020/12/03 01:53:27;;;;;;;79.30;37.70;;;0.20;99.90;;;;;;5034271;28;20537;-61
2020/12/03 01:55:54;;;;;;;77.63;37.87;;;0.20;99.90;;;;;;5034107;28;20526;-60
2020/12/03 01:58:32;;;;;;;69.63;36.77;;;0.20;99.90;;;;;;5034164;28;20490;-61
2020/12/03 02:01:01;;;;;;;87.87;38.53;;;0.20;99.90;;;;;;5035945;28;20436;-61
2020/12/03 02:03:27;;;;;;;82.20;42.00;;;0.10;99.90;;;;;;5038178;28;20750;-60
2020/12/03 02:05:53;;;;;;;76.40;36.63;;;0.00;99.90;;;;;;5037552;28;20510;-60
2020/12/03 02:08:19;;;;;;;79.17;39.27;;;0.00;99.90;;;;;;5037916;28;20513;-61
2020/12/03 02:10:45;;;;;;;82.07;39.97;;;0.00;99.90;;;;;;5038034;28;20456;-61
2020/12/03 02:13:11;;;;;;;84.63;37.77;;;0.10;99.90;;;;;;5037666;28;20545;-61
2020/12/03 02:15:38;;;;;;;88.27;39.70;;;0.10;99.90;;;;;;5037904;28;20456;-61
2020/12/03 02:18:06;;;;;;;81.57;38.20;;;0.10;99.90;;;;;;5038743;28;20456;-60
2020/12/03 02:20:34;;;;;;;76.97;37.80;;;0.20;99.90;;;;;;5038473;28;20929;-60
2020/12/03 02:23:00;;;;;;;70.83;38.67;;;0.20;99.90;;;;;;5038735;28;20778;-61
2020/12/03 02:25:26;;;;;;;70.53;37.50;;;0.20;99.90;;;;;;5038902;28;20452;-61
2020/12/03 02:27:52;;;;;;;79.13;37.40;;;0.30;99.90;;;;;;5038093;28;20460;-60
2020/12/03 02:30:18;;;;;;;74.97;36.77;;;0.30;99.90;;;;;;5038189;28;20487;-61
2020/12/03 02:32:44;;;;;;;78.63;38.03;;;0.30;99.90;;;;;;5037830;28;20483;-61
2020/12/03 02:35:13;;;;;;;73.43;37.40;;;0.30;99.90;;;;;;5037777;28;20906;-60
2020/12/03 02:37:41;;;;;;;77.43;37.00;;;0.30;99.90;;;;;;5037230;28;20460;-60
2020/12/03 02:40:09;;;;;;;71.80;37.57;;;0.30;99.90;;;;;;5038255;28;20441;-59
2020/12/03 02:42:35;;;;;;;89.27;39.77;;;0.40;99.90;;;;;;5038450;28;20456;-60
2020/12/03 02:45:01;;;;;;;74.83;37.20;;;0.30;99.90;;;;;;5038596;28;20467;-58
2020/12/03 02:47:27;;;;;;;80.63;40.03;;;0.30;99.90;;;;;;5038143;28;20471;-60
2020/12/03 02:49:53;;;;;;;78.00;39.70;;;0.20;99.90;;;;;;5038782;28;20506;-59
2020/12/03 02:52:22;;;;;;;84.33;38.90;;;0.20;99.90;;;;;;5038519;28;20840;-59
2020/12/03 02:54:50;;;;;;;90.10;40.73;;;0.20;99.90;;;;;;5038256;28;20842;-60
2020/12/03 02:57:16;;;;;;;87.57;40.90;;;0.20;99.90;;;;;;5037566;28;20461;-60
2020/12/03 02:59:42;;;;;;;74.43;38.00;;;0.20;99.90;;;;;;5037556;28;20466;-60
2020/12/03 03:02:09;;;;;;;84.00;42.53;;;0.20;99.90;;;;;;5038425;28;20490;-60
2020/12/03 03:04:36;;;;;;;79.80;39.97;;;0.20;99.90;;;;;;5039233;28;20535;-59
2020/12/03 03:07:03;;;;;;;83.17;42.47;;;0.10;99.90;;;;;;5038790;28;20459;-60
2020/12/03 03:09:29;;;;;;;79.63;39.00;;;0.00;99.90;;;;;;5038400;28;20804;-59
2020/12/03 03:11:56;;;;;;;84.80;42.40;;;0.00;99.90;;;;;;5036719;28;20483;-59
2020/12/03 03:14:22;;;;;;;87.37;41.87;;;0.00;99.90;;;;;;5038426;28;20464;-60
2020/12/03 03:16:49;;;;;;;91.07;41.40;;;0.00;99.90;;;;;;5037883;28;20841;-60
2020/12/03 03:19:17;;;;;;;85.67;39.03;;;-0.10;99.90;;;;;;5038741;28;20456;-61
2020/12/03 03:21:44;;;;;;;95.93;42.90;;;0.00;99.90;;;;;;5038873;28;20835;-60
2020/12/03 03:24:10;;;;;;;88.93;39.37;;;-0.10;99.90;;;;;;5038735;28;20467;-61
2020/12/03 03:26:37;;;;;;;83.53;37.73;;;-0.20;99.90;;;;;;5037201;28;20460;-60
2020/12/03 03:29:04;;;;;;;90.80;42.13;;;-0.30;99.90;;;;;;5036221;28;20826;-61
2020/12/03 03:31:30;;;;;;;88.67;40.03;;;-0.30;99.90;;;;;;5036185;28;20456;-60
2020/12/03 03:33:56;;;;;;;95.47;41.17;;;-0.30;99.90;;;;;;5035554;28;20879;-60
2020/12/03 03:36:22;;;;;;;97.10;41.83;;;-0.30;99.90;;;;;;5035944;28;20456;-60
2020/12/03 03:38:48;;;;;;;77.60;39.83;;;-0.30;99.90;;;;;;5035519;28;20538;-61
2020/12/03 03:41:14;;;;;;;90.90;41.13;;;-0.30;99.90;;;;;;5035878;28;20452;-61
2020/12/03 03:43:41;;;;;;;89.87;42.33;;;-0.30;99.90;;;;;;5035694;28;20517;-60
2020/12/03 03:46:08;;;;;;;116.83;48.93;;;-0.30;99.90;;;;;;5035438;28;20917;-61
2020/12/03 03:48:34;;;;;;;95.17;44.57;;;-0.30;99.90;;;;;;5035923;28;20488;-61
2020/12/03 03:51:00;;;;;;;90.53;41.67;;;-0.30;99.90;;;;;;5035671;28;20831;-61
2020/12/03 03:53:26;;;;;;;80.87;41.40;;;-0.20;99.90;;;;;;5035452;28;20549;-60
2020/12/03 03:55:52;;;;;;;100.67;43.13;;;-0.20;99.90;;;;;;5035651;28;20517;-60
2020/12/03 03:58:19;;;;;;;105.33;44.20;;;-0.10;99.90;;;;;;5035631;28;20460;-60
2020/12/03 04:00:47;;;;;;;88.30;41.70;;;-0.10;99.90;;;;;;5035614;28;20456;-60
2020/12/03 04:03:16;;;;;;;101.27;44.03;;;0.00;99.90;;;;;;5035301;28;20462;-60
2020/12/03 04:05:44;;;;;;;98.07;43.07;;;0.00;99.90;;;;;;5035311;28;20496;-60
2020/12/03 04:08:11;;;;;;;97.00;44.60;;;-0.10;99.90;;;;;;5035497;28;20486;-60
2020/12/03 04:10:38;;;;;;;103.03;41.97;;;0.00;99.90;;;;;;5035441;28;20460;-60
2020/12/03 04:13:04;;;;;;;85.53;41.50;;;0.00;99.90;;;;;;5035273;28;20543;-60
2020/12/03 04:15:30;;;;;;;103.73;45.03;;;0.10;99.90;;;;;;5035303;28;20456;-61
2020/12/03 04:17:56;;;;;;;93.50;43.47;;;0.10;99.90;;;;;;5035318;28;20456;-60
2020/12/03 04:20:23;;;;;;;96.40;42.97;;;0.10;99.90;;;;;;5035376;28;20452;-61
2020/12/03 04:22:49;;;;;;;97.83;45.63;;;0.10;99.90;;;;;;5035184;28;20486;-61
2020/12/03 04:25:15;;;;;;;95.27;43.30;;;0.00;99.90;;;;;;5034217;28;20522;-60
2020/12/03 04:27:41;;;;;;;105.83;48.23;;;0.10;99.90;;;;;;5034988;28;20459;-60
2020/12/03 04:30:08;;;;;;;83.30;40.10;;;0.10;99.90;;;;;;5035176;28;20980;-60
2020/12/03 04:32:35;;;;;;;99.53;42.90;;;0.00;99.90;;;;;;5035054;28;20476;-61
2020/12/03 04:35:01;;;;;;;104.43;45.40;;;0.00;99.90;;;;;;5035529;28;20525;-60
2020/12/03 04:37:28;;;;;;;103.50;43.63;;;0.00;99.90;;;;;;5034898;28;20460;-61
2020/12/03 04:39:54;;;;;;;95.47;44.90;;;-0.10;99.90;;;;;;5035583;28;20545;-61
2020/12/03 04:42:25;;;;;;;87.80;43.77;;;0.00;99.90;;;;;;5034945;28;20448;-59
2020/12/03 04:44:54;;;;;;;92.03;41.93;;;0.00;99.90;;;;;;5035086;28;20462;-60
2020/12/03 04:47:41;;;;;;;95.07;43.97;;;0.00;99.90;;;;;;5035897;28;20490;-60
2020/12/03 04:50:19;;;;;;;101.93;43.57;;;-0.20;99.90;;;;;;5035098;28;20437;-61
2020/12/03 04:53:02;;;;;;;99.97;43.17;;;-0.10;99.90;;;;;;5034764;28;20526;-60
2020/12/03 04:55:37;;;;;;;100.33;44.23;;;-0.10;99.90;;;;;;5038997;28;20975;-60
2020/12/03 04:58:09;;;;;;;95.10;43.70;;;-0.10;99.90;;;;;;5035172;28;20510;-63
2020/12/03 05:00:47;;;;;;;101.17;44.33;;;-0.10;99.90;;;;;;5035396;28;20502;-60
2020/12/03 05:03:39;;;;;;;114.10;44.80;;;-0.10;99.90;;;;;;5036818;28;20750;-61
2020/12/03 05:06:25;;;;;;;114.40;44.30;;;-0.10;99.90;;;;;;4998024;28;20518;-61
2020/12/03 05:08:59;;;;;;;108.47;46.30;;;0.00;99.90;;;;;;5034697;28;20436;-61
2020/12/03 05:11:29;;;;;;;109.57;44.70;;;0.00;99.90;;;;;;5034625;28;20909;-60
2020/12/03 05:13:59;;;;;;;102.40;43.37;;;0.10;99.90;;;;;;5034505;28;20824;-59
2020/12/03 05:16:32;;;;;;;94.33;43.20;;;0.10;99.90;;;;;;5034538;28;20440;-60
2020/12/03 05:19:02;;;;;;;101.20;45.97;;;0.20;99.90;;;;;;5034727;28;20440;-60
2020/12/03 05:21:31;;;;;;;101.30;42.57;;;0.20;99.90;;;;;;5034474;28;20460;-60
2020/12/03 05:23:58;;;;;;;112.07;43.80;;;0.30;99.90;;;;;;5034639;28;20451;-60
2020/12/03 05:26:28;;;;;;;102.57;45.50;;;0.30;99.90;;;;;;5034473;28;20777;-60
2020/12/03 05:28:57;;;;;;;106.10;44.60;;;0.30;99.90;;;;;;5034686;28;20456;-60
2020/12/03 05:31:27;;;;;;;95.70;44.27;;;0.30;99.90;;;;;;5034226;28;20529;-60
2020/12/03 05:33:55;;;;;;;95.10;45.93;;;0.30;99.90;;;;;;5035440;28;20475;-61
2020/12/03 05:36:25;;;;;;;95.53;43.17;;;0.20;99.90;;;;;;5037706;28;20510;-59
2020/12/03 05:38:52;;;;;;;104.13;43.07;;;0.20;99.90;;;;;;5038016;28;20488;-61
2020/12/03 05:41:20;;;;;;;109.83;43.30;;;0.20;99.90;;;;;;5038203;28;20456;-60
2020/12/03 05:43:46;;;;;;;92.00;43.13;;;0.20;99.90;;;;;;5038278;28;20514;-60
2020/12/03 05:46:15;;;;;;;108.93;44.97;;;0.30;99.90;;;;;;5038268;28;20526;-60
2020/12/03 05:48:41;;;;;;;102.70;41.13;;;0.20;99.90;;;;;;5039455;28;20460;-60
2020/12/03 05:51:17;;;;;;;88.63;42.30;;;0.20;99.90;;;;;;5037833;28;20483;-61
2020/12/03 05:53:52;;;;;;;102.40;40.83;;;0.10;99.90;;;;;;5038065;28;20649;-60
2020/12/03 05:56:23;;;;;;;90.80;40.90;;;0.10;99.90;;;;;;5037912;28;20828;-63
2020/12/03 05:58:50;;;;;;;83.50;37.87;;;0.20;99.90;;;;;;5037927;28;20440;-63
2020/12/03 06:01:18;;;;;;;85.33;37.97;;;0.20;99.90;;;;;;5037989;28;20529;-63
2020/12/03 06:04:05;;;;;;;96.27;41.40;;;0.20;99.90;;;;;;5039508;28;20452;-62
2020/12/03 06:06:58;;;;;;;95.87;40.97;;;0.10;99.90;;;;;;5039826;28;20444;-62
2020/12/03 06:09:37;;;;;;;90.63;40.43;;;0.10;99.90;;;;;;5036990;28;20498;-63
2020/12/03 06:12:20;;;;;;;87.57;40.17;;;0.10;99.90;;;;;;5040361;28;20443;-63
2020/12/03 06:15:01;;;;;;;97.40;40.53;;;0.10;99.90;;;;;;5039222;28;20437;-61
2020/12/03 06:17:40;;;;;;;101.30;42.00;;;0.20;99.90;;;;;;5037829;28;20472;-63
2020/12/03 06:20:27;;;;;;;95.40;42.37;;;0.10;99.90;;;;;;5038004;28;20444;-63
2020/12/03 06:23:11;;;;;;;89.10;38.67;;;0.10;99.90;;;;;;5037649;28;20461;-63
2020/12/03 06:25:45;;;;;;;87.80;38.27;;;0.10;99.90;;;;;;5037475;28;20436;-60
2020/12/03 06:28:49;;;;;;;87.00;38.30;;;0.10;99.90;;;;;;5037454;28;20517;-62
2020/12/03 06:31:24;;;;;;;88.70;39.30;;;0.10;99.90;;;;;;5037488;28;20904;-63
2020/12/03 06:33:57;;;;;;;96.17;40.70;;;0.20;99.90;;;;;;5037552;28;20840;-60
2020/12/03 06:36:28;;;;;;;87.40;40.07;;;0.30;99.90;;;;;;5037659;28;20502;-61
2020/12/03 06:39:19;;;;;;;93.47;41.07;;;0.30;99.90;;;;;;5037530;28;20483;-61
2020/12/03 06:41:52;;;;;;;83.03;40.03;;;0.30;99.90;;;;;;5037609;28;20575;-62
2020/12/03 06:44:23;;;;;;;91.03;40.07;;;0.40;99.90;;;;;;5038383;28;20885;-60
2020/12/03 06:47:20;;;;;;;90.70;39.30;;;0.40;99.90;;;;;;5037713;28;20498;-60
2020/12/03 06:50:22;;;;;;;92.17;38.97;;;0.40;99.90;;;;;;5038574;28;20502;-63
2020/12/03 06:53:17;;;;;;;81.13;37.27;;;0.40;99.90;;;;;;5034359;28;20487;-63
2020/12/03 06:56:21;;;;;;;88.77;38.30;;;0.40;99.90;;;;;;5029779;28;20452;-61
2020/12/03 06:59:10;;;;;;;92.17;41.57;;;0.40;99.90;;;;;;5037662;28;20506;-63
2020/12/03 07:02:14;;;;;;;84.27;37.07;;;0.40;99.90;;;;;;5036818;28;20432;-63
2020/12/03 07:05:06;;;;;;;96.63;38.57;;;0.40;99.90;;;;;;4956833;29;20642;-61
2020/12/03 07:07:58;;;;;;;79.23;38.60;;;0.50;99.90;;;;;;5031477;28;20460;-60
2020/12/03 07:11:02;;;;;;;85.40;39.33;;;0.50;99.90;;;;;;5036573;28;20812;-61
2020/12/03 07:13:59;;;;;;;90.40;40.53;;;0.50;99.90;;;;;;5037342;28;20495;-61
2020/12/03 07:16:58;;;;;;;78.97;38.40;;;0.50;99.90;;;;;;5037410;28;20448;-63
2020/12/03 07:20:09;;;;;;;86.97;37.53;;;0.40;99.90;;;;;;5019627;28;20511;-63
2020/12/03 07:22:42;;;;;;;82.67;36.97;;;0.40;99.90;;;;;;5036093;28;20882;-63
2020/12/03 07:25:09;;;;;;;84.57;36.93;;;0.40;99.90;;;;;;5036102;28;20499;-63
2020/12/03 07:28:03;;;;;;;94.67;37.83;;;0.40;99.90;;;;;;5036231;28;20482;-64
2020/12/03 07:30:47;;;;;;;83.63;35.93;;;0.40;99.90;;;;;;5036605;28;20437;-63
2020/12/03 07:33:22;;;;;;;91.27;39.30;;;0.50;99.90;;;;;;5028101;28;20468;-62
2020/12/03 07:36:02;;;;;;;89.30;38.70;;;0.60;99.90;;;;;;5036014;28;20467;-61
2020/12/03 07:38:34;;;;;;;75.00;35.30;;;0.60;99.90;;;;;;5036265;28;20476;-61
2020/12/03 07:41:01;;;;;;;88.27;38.60;;;0.50;99.90;;;;;;5036339;28;20506;-60
2020/12/03 07:43:33;;;;;;;80.70;39.70;;;0.40;99.90;;;;;;5036450;28;20455;-60
2020/12/03 07:46:00;;;;;;;81.27;37.50;;;0.40;99.90;;;;;;5036209;28;20765;-61
2020/12/03 07:48:45;;;;;;;80.30;36.77;;;0.40;99.90;;;;;;5036651;28;20490;-60
2020/12/03 07:51:15;;;;;;;84.43;39.23;;;0.50;99.90;;;;;;5036397;28;20455;-61
2020/12/03 07:53:41;;;;;;;88.73;38.03;;;0.60;99.90;;;;;;5036341;28;20995;-61
2020/12/03 07:56:33;;;;;;;89.47;41.50;;;0.60;99.90;;;;;;5036513;28;20506;-62
2020/12/03 07:59:37;;;;;;;75.50;35.20;;;0.60;99.90;;;;;;5036106;28;20453;-62
2020/12/03 08:02:23;;;;;;;88.07;36.40;;;0.50;99.90;;;;;;5032625;28;20546;-63
2020/12/03 08:04:49;;;;;;;79.57;36.20;;;0.50;99.90;;;;;;5037066;28;20467;-61
2020/12/03 08:07:28;;;;;;;86.73;40.70;;;0.40;99.90;;;;;;5035544;28;20593;-60
2020/12/03 08:09:54;;;;;;;93.13;40.33;;;0.50;99.90;;;;;;5035451;28;20467;-61
2020/12/03 08:12:22;;;;;;;79.63;37.00;;;0.50;99.90;;;;;;5035892;28;20448;-60
2020/12/03 08:14:49;;;;;;;75.03;37.23;;;0.50;99.90;;;;;;5036874;28;20753;-61
2020/12/03 08:17:55;;;;;;;77.47;37.97;;;0.60;99.90;;;;;;5037507;28;20452;-60
2020/12/03 08:20:24;;;;;;;74.50;35.50;;;0.70;99.90;;;;;;5036862;28;20450;-59
2020/12/03 08:22:53;;;;;;;78.50;38.10;;;0.70;99.90;;;;;;5036780;28;20985;-61
2020/12/03 08:25:24;;;;;;;75.10;36.20;;;0.80;99.90;;;;;;5035837;28;20783;-60
2020/12/03 08:27:57;;;;;;;67.00;34.83;;;0.80;99.90;;;;;;5036560;28;20420;-61
2020/12/03 08:30:39;;;;;;;80.43;35.90;;;0.90;99.90;;;;;;5036184;28;20464;-61
2020/12/03 08:33:08;;;;;;;78.57;38.93;;;0.90;99.90;;;;;;5036188;28;20971;-61
2020/12/03 08:35:34;;;;;;;73.27;31.77;;;0.90;99.90;;;;;;5036530;28;20483;-60
2020/12/03 08:38:01;;;;;;;72.53;35.10;;;0.90;99.90;;;;;;5036054;28;21035;-61
2020/12/03 08:40:30;;;;;;;71.43;33.33;;;0.90;99.90;;;;;;5036898;28;20463;-63
2020/12/03 08:42:56;;;;;;;71.73;33.50;;;0.90;99.90;;;;;;5037701;28;20452;-64
2020/12/03 08:45:23;;;;;;;75.77;32.77;;;0.90;99.90;;;;;;5037749;28;20483;-64
2020/12/03 08:47:52;;;;;;;73.40;35.40;;;0.90;99.90;;;;;;5036076;28;20456;-64
2020/12/03 08:50:19;;;;;;;73.43;35.50;;;0.90;99.90;;;;;;5036624;28;20452;-60
2020/12/03 08:52:46;;;;;;;64.47;32.30;;;1.00;99.90;;;;;;5035104;28;20527;-59
2020/12/03 08:55:13;;;;;;;78.07;33.23;;;0.90;99.90;;;;;;5035179;28;20504;-61
2020/12/03 08:57:42;;;;;;;78.20;35.47;;;0.90;99.90;;;;;;5034970;28;20448;-60
2020/12/03 09:00:10;;;;;;;73.73;34.47;;;0.90;99.90;;;;;;5035084;28;20448;-60
2020/12/03 09:02:37;;;;;;;61.60;32.00;;;0.90;99.90;;;;;;5035230;28;20848;-61
2020/12/03 09:05:04;;;;;;;66.93;33.80;;;0.90;99.90;;;;;;5035582;28;20460;-61
2020/12/03 09:07:35;;;;;;;68.43;32.47;;;0.90;99.90;;;;;;5034964;28;20834;-61
2020/12/03 09:10:03;;;;;;;72.40;34.63;;;1.00;99.90;;;;;;5035869;28;20830;-60
2020/12/03 09:12:30;;;;;;;65.30;33.23;;;0.90;99.90;;;;;;5038748;28;20753;-60
2020/12/03 09:15:02;;;;;;;72.80;34.23;;;1.00;99.90;;;;;;5038939;28;20844;-61
2020/12/03 09:17:30;;;;;;;70.33;31.80;;;1.00;99.90;;;;;;5039235;28;20494;-61
2020/12/03 09:20:03;;;;;;;61.90;34.00;;;1.10;99.90;;;;;;5039042;28;20456;-61
2020/12/03 09:22:30;;;;;;;67.77;34.90;;;1.00;99.90;;;;;;5038545;28;20467;-60
2020/12/03 09:24:58;;;;;;;70.70;33.40;;;1.00;99.90;;;;;;5038652;28;20456;-63
2020/12/03 09:27:26;;;;;;;67.60;33.20;;;1.00;99.90;;;;;;5039364;28;20452;-60
2020/12/03 09:29:53;;;;;;;73.70;34.67;;;1.00;99.90;;;;;;5038905;28;20517;-61
2020/12/03 09:32:24;;;;;;;65.20;31.43;;;1.10;99.90;;;;;;5038500;28;20460;-61
2020/12/03 09:34:53;;;;;;;60.60;30.73;;;1.00;99.90;;;;;;5038399;28;20916;-61
2020/12/03 09:37:19;;;;;;;57.93;29.83;;;1.00;99.90;;;;;;5038573;28;20448;-61
2020/12/03 09:39:46;;;;;;;69.43;33.00;;;1.10;99.90;;;;;;5038231;28;20471;-60
2020/12/03 09:42:15;;;;;;;60.37;31.70;;;1.20;99.90;;;;;;5038730;28;20459;-61
2020/12/03 09:44:43;;;;;;;69.30;33.23;;;1.10;99.90;;;;;;5038599;28;20444;-60
2020/12/03 09:47:13;;;;;;;62.27;30.77;;;1.20;99.90;;;;;;5038211;28;20893;-61
2020/12/03 09:49:41;;;;;;;61.27;29.70;;;1.20;99.90;;;;;;5038534;28;20482;-60
2020/12/03 09:52:10;;;;;;;60.63;32.03;;;1.20;99.90;;;;;;5038171;28;20860;-60
2020/12/03 09:54:36;;;;;;;56.77;29.50;;;1.30;99.90;;;;;;5037991;28;20562;-61
2020/12/03 09:57:04;;;;;;;56.57;30.27;;;1.30;99.90;;;;;;5038052;28;20463;-61
2020/12/03 09:59:31;;;;;;;64.13;30.57;;;1.30;99.90;;;;;;5037824;28;20514;-60
2020/12/03 10:02:16;;;;;;;58.37;29.60;;;1.30;99.90;;;;;;5038018;28;20841;-59
2020/12/03 10:05:11;;;;;;;55.17;29.40;;;1.20;99.90;;;;;;5039488;28;20502;-60
2020/12/03 10:08:08;;;;;;;63.73;28.97;;;1.40;99.90;;;;;;5038891;28;20506;-61
2020/12/03 10:10:46;;;;;;;65.73;31.60;;;1.30;99.90;;;;;;5037993;28;20506;-60
2020/12/03 10:13:44;;;;;;;62.80;28.97;;;1.40;99.90;;;;;;5037302;28;20464;-60
2020/12/03 10:16:19;;;;;;;59.57;29.70;;;1.50;99.90;;;;;;5037651;28;20460;-59
2020/12/03 10:18:50;;;;;;;58.47;28.17;;;1.40;99.90;;;;;;5038742;28;20451;-61
2020/12/03 10:21:21;;;;;;;60.50;30.50;;;1.40;99.90;;;;;;5037313;28;20437;-61
2020/12/03 10:23:56;;;;;;;58.27;30.77;;;1.40;99.90;;;;;;5036837;28;20459;-63
2020/12/03 10:26:48;;;;;;;57.77;29.73;;;1.50;99.90;;;;;;5037247;28;20471;-63
2020/12/03 10:29:41;;;;;;;61.43;27.20;;;1.60;99.90;;;;;;5018765;28;20472;-62
2020/12/03 10:32:11;;;;;;;51.47;27.97;;;1.70;99.90;;;;;;5037563;28;20511;-63
2020/12/03 10:34:39;;;;;;;54.37;28.10;;;1.80;99.90;;;;;;5036647;28;20479;-64
2020/12/03 10:37:12;;;;;;;53.70;26.87;;;1.90;99.90;;;;;;5037211;28;20514;-62
2020/12/03 10:39:47;;;;;;;49.63;27.03;;;1.80;99.90;;;;;;5036634;28;20583;-63
2020/12/03 10:42:16;;;;;;;53.47;28.80;;;1.80;99.90;;;;;;5037116;28;20451;-63
2020/12/03 10:44:48;;;;;;;56.20;27.87;;;1.80;99.90;;;;;;5037369;28;20471;-63
2020/12/03 10:47:18;;;;;;;53.73;28.63;;;1.80;99.90;;;;;;5036988;28;20500;-63
2020/12/03 10:49:45;;;;;;;57.60;28.43;;;1.80;99.90;;;;;;5037226;28;20436;-63
2020/12/03 10:52:13;;;;;;;56.73;27.73;;;1.80;99.90;;;;;;5036960;28;20494;-64
2020/12/03 10:54:40;;;;;;;56.87;27.53;;;1.70;99.90;;;;;;5037713;28;20480;-63
2020/12/03 10:57:15;;;;;;;52.17;27.63;;;1.60;99.90;;;;;;5037037;28;20471;-63
2020/12/03 10:59:42;;;;;;;53.57;28.57;;;1.70;99.90;;;;;;5037014;28;20454;-63
2020/12/03 11:02:26;;;;;;;60.53;29.03;;;1.70;99.90;;;;;;5036731;28;20909;-62
2020/12/03 11:04:52;;;;;;;48.77;26.53;;;1.70;99.90;;;;;;5037546;28;20440;-63
2020/12/03 11:07:19;;;;;;;54.03;26.47;;;1.70;99.90;;;;;;5037363;28;20452;-62
2020/12/03 11:09:51;;;;;;;53.73;27.90;;;1.80;99.90;;;;;;5036795;28;20509;-62
2020/12/03 11:12:18;;;;;;;54.63;27.60;;;1.50;99.90;;;;;;5036635;28;20471;-63
2020/12/03 11:14:46;;;;;;;51.17;27.50;;;1.50;99.90;;;;;;5036529;28;20549;-62
2020/12/03 11:17:32;;;;;;;49.13;27.87;;;1.60;99.90;;;;;;5037011;28;20925;-62
2020/12/03 11:20:01;;;;;;;51.60;27.27;;;1.50;99.90;;;;;;5036403;28;20463;-63
2020/12/03 11:22:49;;;;;;;57.30;28.07;;;1.60;99.90;;;;;;5037369;28;20460;-62
2020/12/03 11:25:17;;;;;;;54.00;26.30;;;1.70;99.90;;;;;;5036966;28;20440;-63
2020/12/03 11:27:43;;;;;;;44.27;24.23;;;1.70;99.90;;;;;;5036230;28;20539;-64
2020/12/03 11:30:15;;;;;;;45.90;25.70;;;1.80;99.90;;;;;;5036353;28;20846;-62
2020/12/03 11:32:46;;;;;;;49.07;27.30;;;1.80;99.90;;;;;;5035976;28;20976;-63
2020/12/03 11:35:22;;;;;;;54.83;26.03;;;1.80;99.90;;;;;;5036224;28;20531;-63
2020/12/03 11:37:51;;;;;;;54.07;25.60;;;1.80;99.90;;;;;;5035533;28;20929;-63
2020/12/03 11:40:27;;;;;;;47.10;27.33;;;1.80;99.90;;;;;;5035895;28;20440;-63
2020/12/03 11:42:58;;;;;;;49.00;27.33;;;1.80;99.90;;;;;;5036051;28;20451;-63
2020/12/03 11:45:49;;;;;;;45.67;25.60;;;1.80;99.90;;;;;;5035908;28;20455;-66
2020/12/03 11:48:39;;;;;;;44.60;25.13;;;1.90;99.90;;;;;;5035611;28;20817;-63
2020/12/03 11:51:05;;;;;;;46.10;25.57;;;1.80;99.90;;;;;;5036016;28;20476;-61
2020/12/03 11:53:31;;;;;;;52.17;26.70;;;1.80;99.90;;;;;;5036895;28;20496;-64
2020/12/03 11:55:58;;;;;;;50.63;26.50;;;1.90;99.90;;;;;;5035634;28;20858;-63
2020/12/03 11:58:29;;;;;;;45.53;25.93;;;1.90;99.90;;;;;;5036675;28;20451;-61
2020/12/03 12:01:10;;;;;;;49.20;26.27;;;2.00;99.90;;;;;;5036799;28;20456;-62
2020/12/03 12:03:36;;;;;;;51.50;26.10;;;1.90;99.90;;;;;;5036767;28;20514;-62
2020/12/03 12:06:08;;;;;;;46.13;24.53;;;1.80;99.90;;;;;;5036630;28;20452;-63
2020/12/03 12:08:37;;;;;;;52.43;26.10;;;1.80;99.90;;;;;;5037171;28;20436;-63
2020/12/03 12:11:10;;;;;;;55.03;26.10;;;1.80;99.90;;;;;;5039486;28;20785;-63
2020/12/03 12:13:36;;;;;;;43.00;24.80;;;1.90;99.90;;;;;;5035783;28;20490;-63
2020/12/03 12:16:02;;;;;;;48.53;23.30;;;2.00;99.90;;;;;;5035819;28;20456;-63
2020/12/03 12:18:29;;;;;;;43.70;22.30;;;2.00;99.90;;;;;;5037636;28;20798;-64
2020/12/03 12:20:55;;;;;;;48.80;26.40;;;2.10;99.90;;;;;;5037086;28;20937;-62
2020/12/03 12:23:21;;;;;;;45.43;23.70;;;2.20;99.90;;;;;;5035774;28;20475;-63
2020/12/03 12:25:47;;;;;;;44.20;23.60;;;2.20;99.90;;;;;;5037042;28;20459;-63
2020/12/03 12:28:14;;;;;;;43.10;23.40;;;2.20;99.90;;;;;;5036369;28;20461;-63
2020/12/03 12:30:40;;;;;;;43.03;23.10;;;2.20;99.90;;;;;;5035783;28;20471;-63
2020/12/03 12:33:09;;;;;;;48.20;23.30;;;2.10;99.90;;;;;;5036457;28;20542;-63
2020/12/03 12:35:39;;;;;;;39.73;22.13;;;2.00;99.90;;;;;;5034846;28;20456;-63
2020/12/03 12:38:06;;;;;;;43.80;24.10;;;2.00;99.90;;;;;;5034729;28;21004;-63
2020/12/03 12:40:32;;;;;;;42.40;24.97;;;2.00;99.90;;;;;;5035736;28;20526;-63
2020/12/03 12:42:58;;;;;;;42.73;24.50;;;2.10;99.90;;;;;;5035550;28;20460;-63
2020/12/03 12:45:24;;;;;;;44.00;21.87;;;2.10;99.90;;;;;;5034856;28;20511;-63
2020/12/03 12:47:50;;;;;;;49.20;24.33;;;2.00;99.90;;;;;;5035013;28;20510;-59
2020/12/03 12:50:17;;;;;;;46.00;23.53;;;2.10;99.90;;;;;;5035401;28;20905;-60
2020/12/03 12:52:43;;;;;;;40.00;23.27;;;2.20;99.90;;;;;;5035938;28;20456;-60
2020/12/03 12:55:10;;;;;;;41.93;22.50;;;2.10;99.90;;;;;;5035957;28;20503;-60
2020/12/03 12:57:36;;;;;;;40.20;22.67;;;2.00;99.90;;;;;;5036494;28;20482;-61